Clearview, Oklahoma
Current Conditions -  °F | °C
As of 8:55 AM on Thursday 30 Oct 2014 (Local Time) from KOKM Reporting Station
Clear Clear  
Wind Chill: 47°   Ceiling: Unl
Heat Index: 49°   Visibility: 10mi
Dew Point: 44°   Wind: 6mph
Humidity: 81%   Direction: 220°SW
Pressure: 30.12"   Gusts: NA
Location:  35.3761°N, 96.1179°W
Report Text: KOKM 301355Z AUTO 22005KT 10SM CLR 10/07 A3012 RMK AO2 T00960065
Loading
Personal Weather Stations






























Interactive Weather Map
Tropical Storm Tracking
New forecast layout! Learn more

10-Day Weather Forecast

Advertisements
Track Severe Weather on mobile